Time;durP1;ratioP1;P1;durP2;ratioP2;P2;SDS_P1;SDS_P2;PMS_P1;PMS_P2;Temp;Humidity;BMP_temperature;BMP_pressure;BME280_temperature;BME280_humidity;BME280_pressure;Samples;Min_cycle;Max_cycle;Signal;HPM_P1;HPM_P2
2023/09/27 00:02:07;;;;;;;16.63;10.65;;;;;;;;;;5112286;28;20039;-62
2023/09/27 00:04:34;;;;;;;24.20;12.43;;;;;;;;;;5112255;28;20518;-63
2023/09/27 00:07:00;;;;;;;21.25;12.43;;;;;;;;;;5112087;28;20111;-62
2023/09/27 00:09:25;;;;;;;19.25;11.85;;;;;;;;;;5093728;28;20114;-61
2023/09/27 00:11:51;;;;;;;23.25;13.00;;;;;;;;;;5111838;28;20032;-62
2023/09/27 00:14:17;;;;;;;22.25;12.95;;;;;;;;;;5091994;28;20081;-62
2023/09/27 00:16:43;;;;;;;22.48;11.98;;;;;;;;;;5090403;28;20040;-62
2023/09/27 00:19:09;;;;;;;27.58;12.93;;;;;;;;;;5089489;28;20581;-62
2023/09/27 00:21:34;;;;;;;18.08;11.05;;;;;;;;;;5091327;28;20042;-61
2023/09/27 00:24:00;;;;;;;17.00;11.07;;;;;;;;;;5091351;28;20028;-63
2023/09/27 00:26:25;;;;;;;23.05;12.35;;;;;;;;;;5089944;28;20063;-63
2023/09/27 00:28:52;;;;;;;19.70;10.85;;;;;;;;;;5091459;28;20039;-63
2023/09/27 00:31:18;;;;;;;22.25;12.10;;;;;;;;;;5072970;28;20040;-62
2023/09/27 00:33:44;;;;;;;21.05;12.80;;;;;;;;;;5091280;28;20036;-61
2023/09/27 00:36:09;;;;;;;18.88;12.27;;;;;;;;;;5091378;28;20301;-62
2023/09/27 00:38:36;;;;;;;23.52;13.13;;;;;;;;;;5090139;28;20035;-62
2023/09/27 00:41:04;;;;;;;19.52;11.80;;;;;;;;;;5089580;28;20064;-62
2023/09/27 00:43:31;;;;;;;19.55;11.73;;;;;;;;;;5089787;28;20511;-61
2023/09/27 00:45:59;;;;;;;14.73;10.32;;;;;;;;;;5089873;28;20055;-63
2023/09/27 00:48:24;;;;;;;20.42;11.45;;;;;;;;;;5090979;28;20042;-62
2023/09/27 00:50:51;;;;;;;17.23;10.45;;;;;;;;;;5090782;28;20122;-64
2023/09/27 00:53:17;;;;;;;17.25;11.07;;;;;;;;;;5089870;28;20040;-61
2023/09/27 00:55:43;;;;;;;16.83;11.60;;;;;;;;;;5091058;28;20032;-63
2023/09/27 00:58:09;;;;;;;21.52;11.38;;;;;;;;;;5091622;28;20126;-63
2023/09/27 01:00:35;;;;;;;18.52;10.48;;;;;;;;;;5095180;28;20466;-63
2023/09/27 01:03:02;;;;;;;15.93;10.90;;;;;;;;;;5095348;28;20080;-62
2023/09/27 01:05:28;;;;;;;13.77;10.60;;;;;;;;;;5093708;28;20032;-62
2023/09/27 01:07:53;;;;;;;13.57;10.43;;;;;;;;;;5095240;28;20523;-62
2023/09/27 01:10:20;;;;;;;14.10;10.35;;;;;;;;;;5094718;28;20574;-62
2023/09/27 01:12:46;;;;;;;17.40;10.88;;;;;;;;;;5095104;28;20359;-62
2023/09/27 01:15:11;;;;;;;19.90;12.20;;;;;;;;;;5097052;28;20497;-63
2023/09/27 01:17:51;;;;;;;20.55;13.60;;;;;;;;;;5113911;28;20496;-63
2023/09/27 01:20:16;;;;;;;25.20;17.27;;;;;;;;;;5115069;28;20571;-62
2023/09/27 01:22:42;;;;;;;33.03;22.50;;;;;;;;;;5115248;28;20115;-62
2023/09/27 01:25:11;;;;;;;32.83;22.90;;;;;;;;;;5115158;28;20032;-62
2023/09/27 01:27:37;;;;;;;28.60;20.42;;;;;;;;;;5113812;28;20125;-63
2023/09/27 01:30:05;;;;;;;24.67;17.05;;;;;;;;;;5115033;28;20416;-63
2023/09/27 01:32:31;;;;;;;20.90;14.55;;;;;;;;;;5113566;28;20078;-63
2023/09/27 01:34:56;;;;;;;20.55;13.52;;;;;;;;;;5114984;28;20213;-63
2023/09/27 01:37:22;;;;;;;20.75;12.30;;;;;;;;;;5113623;28;20028;-62
2023/09/27 01:39:48;;;;;;;17.42;12.10;;;;;;;;;;5114734;28;20039;-61
2023/09/27 01:42:13;;;;;;;16.17;11.82;;;;;;;;;;5113439;28;20088;-62
2023/09/27 01:44:39;;;;;;;18.65;11.10;;;;;;;;;;5114853;28;20551;-65
2023/09/27 01:47:04;;;;;;;16.13;10.85;;;;;;;;;;5114633;28;20043;-63
2023/09/27 01:49:31;;;;;;;17.80;11.48;;;;;;;;;;5110935;28;20036;-62
2023/09/27 01:51:57;;;;;;;18.40;10.80;;;;;;;;;;5093224;28;20031;-63
2023/09/27 01:54:23;;;;;;;15.35;9.68;;;;;;;;;;5093175;28;20386;-62
2023/09/27 01:56:48;;;;;;;17.58;10.05;;;;;;;;;;5094650;28;20552;-62
2023/09/27 01:59:14;;;;;;;20.88;11.10;;;;;;;;;;5093330;28;20039;-62
2023/09/27 02:01:40;;;;;;;16.90;10.63;;;;;;;;;;5093243;28;20031;-63
2023/09/27 02:04:05;;;;;;;16.10;9.68;;;;;;;;;;5094499;28;20719;-62
2023/09/27 02:06:31;;;;;;;16.48;10.82;;;;;;;;;;5094251;28;20079;-62
2023/09/27 02:08:56;;;;;;;22.98;11.95;;;;;;;;;;5092572;28;20092;-63
2023/09/27 02:11:25;;;;;;;29.33;12.90;;;;;;;;;;5093681;28;20086;-63
2023/09/27 02:13:51;;;;;;;25.10;12.45;;;;;;;;;;5093167;28;20047;-63
2023/09/27 02:16:17;;;;;;;28.65;14.32;;;;;;;;;;5097864;28;20467;-62
2023/09/27 02:18:42;;;;;;;24.73;15.48;;;;;;;;;;5113283;28;20058;-62
2023/09/27 02:21:08;;;;;;;25.55;13.05;;;;;;;;;;5096351;28;20122;-62
2023/09/27 02:23:34;;;;;;;23.58;13.10;;;;;;;;;;5096068;28;20118;-62
2023/09/27 02:25:59;;;;;;;22.75;12.10;;;;;;;;;;5114297;27;20040;-63
2023/09/27 02:28:25;;;;;;;18.75;10.85;;;;;;;;;;5114278;28;20118;-63
2023/09/27 02:30:50;;;;;;;20.58;10.93;;;;;;;;;;5113265;28;20020;-63
2023/09/27 02:33:17;;;;;;;20.73;11.20;;;;;;;;;;5112971;28;20059;-63
2023/09/27 02:35:43;;;;;;;26.17;12.48;;;;;;;;;;5113948;28;20114;-62
2023/09/27 02:38:09;;;;;;;26.77;12.25;;;;;;;;;;5112706;28;20118;-63
2023/09/27 02:40:34;;;;;;;19.98;11.93;;;;;;;;;;5113875;28;20517;-63
2023/09/27 02:43:00;;;;;;;26.90;13.88;;;;;;;;;;5113957;28;20069;-63
2023/09/27 02:45:27;;;;;;;30.23;13.35;;;;;;;;;;5112361;28;20043;-63
2023/09/27 02:47:53;;;;;;;21.25;12.85;;;;;;;;;;5112253;28;20465;-62
2023/09/27 02:50:18;;;;;;;19.80;12.55;;;;;;;;;;5113758;28;20088;-63
2023/09/27 02:52:44;;;;;;;24.35;12.32;;;;;;;;;;5113876;28;20039;-62
2023/09/27 02:55:10;;;;;;;19.05;11.23;;;;;;;;;;5113828;28;20118;-64
2023/09/27 02:57:38;;;;;;;16.67;11.13;;;;;;;;;;5113701;28;20492;-63
2023/09/27 03:00:06;;;;;;;19.77;10.93;;;;;;;;;;5112058;28;20122;-64
2023/09/27 03:02:33;;;;;;;19.20;11.52;;;;;;;;;;5113819;28;20031;-63
2023/09/27 03:04:59;;;;;;;20.80;11.73;;;;;;;;;;5112118;28;20042;-64
2023/09/27 03:07:25;;;;;;;17.95;11.52;;;;;;;;;;5111962;28;20044;-63
2023/09/27 03:09:51;;;;;;;17.58;11.02;;;;;;;;;;5113077;28;20439;-64
2023/09/27 03:12:17;;;;;;;20.08;11.52;;;;;;;;;;5112216;28;20034;-63
2023/09/27 03:14:43;;;;;;;20.48;12.75;;;;;;;;;;5113230;28;20118;-63
2023/09/27 03:17:09;;;;;;;20.60;12.80;;;;;;;;;;5113143;28;20042;-62
2023/09/27 03:19:35;;;;;;;23.25;12.80;;;;;;;;;;5112109;28;20036;-62
2023/09/27 03:22:01;;;;;;;19.67;12.68;;;;;;;;;;5092525;28;20119;-62
2023/09/27 03:24:27;;;;;;;16.42;11.70;;;;;;;;;;5091367;28;20043;-63
2023/09/27 03:26:53;;;;;;;20.05;12.27;;;;;;;;;;5091282;28;20052;-62
2023/09/27 03:29:19;;;;;;;18.52;12.45;;;;;;;;;;5074332;28;20674;-62
2023/09/27 03:31:45;;;;;;;21.00;11.55;;;;;;;;;;5091462;28;20024;-62
2023/09/27 03:34:11;;;;;;;22.42;11.88;;;;;;;;;;5074702;28;20044;-62
2023/09/27 03:36:38;;;;;;;21.17;13.20;;;;;;;;;;5074121;28;20081;-62
2023/09/27 03:39:04;;;;;;;21.75;12.23;;;;;;;;;;5074032;28;20492;-63
2023/09/27 03:41:31;;;;;;;27.33;13.95;;;;;;;;;;5090862;28;20059;-62
2023/09/27 03:43:57;;;;;;;24.25;14.00;;;;;;;;;;5091196;28;20396;-63
2023/09/27 03:46:23;;;;;;;29.23;13.40;;;;;;;;;;5091133;28;20465;-62
2023/09/27 03:48:49;;;;;;;28.25;13.63;;;;;;;;;;5092366;28;20040;-63
2023/09/27 03:51:25;;;;;;;35.10;14.55;;;;;;;;;;5090347;28;20046;-64
2023/09/27 03:53:51;;;;;;;113.85;60.85;;;;;;;;;;5091028;28;20032;-61
2023/09/27 03:56:18;;;;;;;28.73;14.00;;;;;;;;;;5091906;28;20393;-64
2023/09/27 03:58:44;;;;;;;23.98;13.30;;;;;;;;;;5090996;28;20047;-62
2023/09/27 04:01:10;;;;;;;24.63;12.27;;;;;;;;;;5092087;28;20467;-63
2023/09/27 04:03:36;;;;;;;20.25;11.70;;;;;;;;;;5090891;28;20035;-62
2023/09/27 04:06:02;;;;;;;25.33;11.95;;;;;;;;;;5091884;28;20043;-63
2023/09/27 04:08:28;;;;;;;22.50;11.73;;;;;;;;;;5090862;28;20057;-62
2023/09/27 04:10:53;;;;;;;22.55;12.27;;;;;;;;;;5090359;28;20036;-65
2023/09/27 04:13:19;;;;;;;21.33;11.75;;;;;;;;;;5090504;28;20127;-62
2023/09/27 04:15:48;;;;;;;22.33;13.02;;;;;;;;;;5090023;28;20140;-63
2023/09/27 04:18:13;;;;;;;16.40;11.98;;;;;;;;;;5090064;28;20472;-63
2023/09/27 04:20:39;;;;;;;21.35;12.45;;;;;;;;;;5089845;28;20067;-60
2023/09/27 04:23:04;;;;;;;26.75;12.75;;;;;;;;;;5091863;28;20036;-65
2023/09/27 04:25:30;;;;;;;24.10;12.82;;;;;;;;;;5091440;28;20455;-62
2023/09/27 04:27:55;;;;;;;21.25;12.00;;;;;;;;;;5091960;28;20039;-63
2023/09/27 04:30:22;;;;;;;21.60;12.10;;;;;;;;;;5073367;28;20032;-66
2023/09/27 04:32:52;;;;;;;23.38;12.88;;;;;;;;;;5091683;28;20082;-65
2023/09/27 04:35:19;;;;;;;25.42;12.88;;;;;;;;;;5091537;28;20040;-65
2023/09/27 04:37:45;;;;;;;24.63;12.18;;;;;;;;;;5091400;28;20447;-65
2023/09/27 04:40:11;;;;;;;23.25;12.60;;;;;;;;;;5091155;28;20087;-64
2023/09/27 04:42:38;;;;;;;21.65;11.57;;;;;;;;;;5091699;28;20036;-64
2023/09/27 04:45:04;;;;;;;19.83;12.30;;;;;;;;;;5090342;28;20032;-65
2023/09/27 04:47:30;;;;;;;22.55;11.88;;;;;;;;;;5091447;28;20051;-64
2023/09/27 04:49:56;;;;;;;23.02;14.55;;;;;;;;;;5089627;28;20035;-64
2023/09/27 04:52:22;;;;;;;23.35;12.38;;;;;;;;;;5091594;28;20089;-63
2023/09/27 04:54:48;;;;;;;24.00;11.80;;;;;;;;;;5091218;28;20048;-66
2023/09/27 04:57:13;;;;;;;23.52;12.52;;;;;;;;;;5089947;28;20024;-66
2023/09/27 04:59:39;;;;;;;16.85;11.30;;;;;;;;;;5091071;28;20076;-65
2023/09/27 05:02:05;;;;;;;21.73;12.02;;;;;;;;;;5091355;28;20032;-65
2023/09/27 05:04:30;;;;;;;21.85;12.68;;;;;;;;;;5091199;28;20048;-67
2023/09/27 05:06:56;;;;;;;24.17;12.90;;;;;;;;;;5091319;28;20140;-66
2023/09/27 05:09:22;;;;;;;20.98;12.95;;;;;;;;;;5091173;28;20294;-64
2023/09/27 05:11:48;;;;;;;19.85;13.15;;;;;;;;;;5091345;28;20118;-65
2023/09/27 05:14:13;;;;;;;26.38;14.40;;;;;;;;;;5091376;28;20043;-62
2023/09/27 05:16:39;;;;;;;21.65;13.52;;;;;;;;;;5097973;28;20040;-64
2023/09/27 05:19:04;;;;;;;19.38;13.20;;;;;;;;;;5109983;28;20413;-62
2023/09/27 05:21:30;;;;;;;21.85;13.02;;;;;;;;;;5109870;28;20031;-62
2023/09/27 05:23:56;;;;;;;19.67;11.77;;;;;;;;;;5109947;28;20039;-61
2023/09/27 05:26:21;;;;;;;18.63;10.85;;;;;;;;;;5110975;28;20039;-60
2023/09/27 05:28:47;;;;;;;17.58;10.85;;;;;;;;;;5110775;28;20244;-61
2023/09/27 05:31:13;;;;;;;20.30;13.30;;;;;;;;;;5111013;28;20047;-62
2023/09/27 05:33:38;;;;;;;19.00;11.57;;;;;;;;;;5111142;28;20382;-62
2023/09/27 05:36:05;;;;;;;22.38;13.57;;;;;;;;;;5109795;28;20335;-62
2023/09/27 05:38:31;;;;;;;21.45;14.75;;;;;;;;;;5111029;28;20492;-62
2023/09/27 05:40:56;;;;;;;31.98;16.23;;;;;;;;;;5110066;28;20055;-63
2023/09/27 05:43:22;;;;;;;22.73;14.07;;;;;;;;;;5111369;28;20046;-62
2023/09/27 05:45:48;;;;;;;25.77;13.25;;;;;;;;;;5112234;28;20048;-64
2023/09/27 05:48:14;;;;;;;24.77;14.73;;;;;;;;;;5114938;28;20047;-62
2023/09/27 05:50:44;;;;;;;24.50;16.38;;;;;;;;;;5114518;28;20097;-63
2023/09/27 05:53:11;;;;;;;31.30;19.42;;;;;;;;;;5097253;28;20059;-61
2023/09/27 05:55:37;;;;;;;18.23;13.05;;;;;;;;;;5093147;28;20040;-63
2023/09/27 05:58:02;;;;;;;21.35;14.52;;;;;;;;;;5094447;28;20028;-63
2023/09/27 06:00:37;;;;;;;22.35;14.80;;;;;;;;;;5094261;28;20043;-63
2023/09/27 06:03:04;;;;;;;23.75;14.88;;;;;;;;;;5092917;28;20039;-66
2023/09/27 06:05:30;;;;;;;20.90;13.43;;;;;;;;;;5092586;28;20132;-66
2023/09/27 06:07:55;;;;;;;24.25;15.90;;;;;;;;;;5094427;28;20126;-62
2023/09/27 06:10:22;;;;;;;25.83;16.67;;;;;;;;;;5094092;28;20119;-62
2023/09/27 06:12:47;;;;;;;26.65;11.98;;;;;;;;;;5092484;28;20024;-62
2023/09/27 06:15:14;;;;;;;30.52;13.32;;;;;;;;;;5093472;28;20050;-63
2023/09/27 06:17:42;;;;;;;30.63;13.60;;;;;;;;;;5091057;28;20037;-64
2023/09/27 06:20:11;;;;;;;17.75;11.55;;;;;;;;;;5073602;28;20040;-62
2023/09/27 06:22:37;;;;;;;25.93;14.07;;;;;;;;;;5073529;28;20024;-62
2023/09/27 06:25:06;;;;;;;23.30;14.75;;;;;;;;;;5073186;28;20305;-63
2023/09/27 06:27:31;;;;;;;20.95;11.02;;;;;;;;;;5073191;28;20079;-62
2023/09/27 06:29:58;;;;;;;24.40;14.60;;;;;;;;;;5071975;28;20081;-64
2023/09/27 06:32:23;;;;;;;19.60;12.88;;;;;;;;;;5072871;28;20036;-63
2023/09/27 06:34:52;;;;;;;28.80;19.02;;;;;;;;;;5073460;28;20045;-63
2023/09/27 06:37:18;;;;;;;16.70;12.18;;;;;;;;;;5073236;28;20051;-64
2023/09/27 06:39:44;;;;;;;21.38;12.02;;;;;;;;;;5081166;28;20090;-63
2023/09/27 06:42:09;;;;;;;15.18;10.75;;;;;;;;;;5066148;28;20432;-63
2023/09/27 06:44:36;;;;;;;16.98;12.10;;;;;;;;;;5081373;28;20044;-64
2023/09/27 06:47:02;;;;;;;17.85;12.10;;;;;;;;;;5080515;28;20413;-65
2023/09/27 06:49:30;;;;;;;16.20;10.85;;;;;;;;;;5083686;28;20039;-66
2023/09/27 06:51:55;;;;;;;17.95;12.23;;;;;;;;;;5081300;28;20036;-63
2023/09/27 06:54:21;;;;;;;22.92;12.60;;;;;;;;;;5080672;28;20031;-65
2023/09/27 06:56:47;;;;;;;12.85;10.80;;;;;;;;;;5083185;28;20024;-63
2023/09/27 06:59:13;;;;;;;19.05;12.48;;;;;;;;;;5081641;28;20032;-63
2023/09/27 07:01:41;;;;;;;18.00;12.80;;;;;;;;;;5081556;28;20035;-63
2023/09/27 07:04:08;;;;;;;16.63;11.02;;;;;;;;;;5083072;28;20039;-63
2023/09/27 07:06:34;;;;;;;21.58;13.57;;;;;;;;;;5081072;28;20048;-62
2023/09/27 07:09:00;;;;;;;18.40;12.02;;;;;;;;;;5081678;28;20036;-63
2023/09/27 07:11:25;;;;;;;12.10;9.95;;;;;;;;;;5076503;28;20406;-62
2023/09/27 07:13:51;;;;;;;13.30;10.18;;;;;;;;;;5072260;28;20032;-61
2023/09/27 07:16:26;;;;;;;18.30;11.20;;;;;;;;;;5074864;28;20060;-63
2023/09/27 07:18:55;;;;;;;12.25;9.57;;;;;;;;;;5073447;28;20036;-63
2023/09/27 07:21:22;;;;;;;20.33;10.18;;;;;;;;;;5070913;28;20478;-62
2023/09/27 07:23:49;;;;;;;12.32;9.95;;;;;;;;;;5070826;28;20065;-62
2023/09/27 07:26:16;;;;;;;13.63;10.00;;;;;;;;;;5037787;28;20040;-61
2023/09/27 07:28:42;;;;;;;15.98;10.10;;;;;;;;;;5070351;28;20033;-63
2023/09/27 07:31:08;;;;;;;14.15;10.00;;;;;;;;;;5072036;28;20089;-64
2023/09/27 07:33:33;;;;;;;11.50;8.43;;;;;;;;;;5071709;28;20061;-62
2023/09/27 07:35:59;;;;;;;13.95;8.60;;;;;;;;;;5072030;28;20041;-63
2023/09/27 07:38:26;;;;;;;14.18;8.75;;;;;;;;;;5070299;28;20049;-63
2023/09/27 07:40:51;;;;;;;12.57;8.57;;;;;;;;;;5080664;28;20425;-62
2023/09/27 07:43:18;;;;;;;12.95;8.68;;;;;;;;;;5090655;28;20047;-63
2023/09/27 07:45:46;;;;;;;19.15;9.00;;;;;;;;;;5091818;28;20090;-64
2023/09/27 07:48:12;;;;;;;12.63;8.73;;;;;;;;;;5091706;28;20055;-62
2023/09/27 07:50:38;;;;;;;19.52;9.85;;;;;;;;;;5091722;28;20493;-63
2023/09/27 07:53:08;;;;;;;12.93;8.25;;;;;;;;;;5090097;28;20032;-63
2023/09/27 07:55:43;;;;;;;18.42;8.88;;;;;;;;;;5091487;28;20194;-64
2023/09/27 07:58:12;;;;;;;15.35;8.40;;;;;;;;;;5091827;28;20024;-63
2023/09/27 08:00:40;;;;;;;11.65;6.85;;;;;;;;;;5091427;28;20028;-64
2023/09/27 08:03:07;;;;;;;12.68;7.90;;;;;;;;;;5091620;28;20036;-62
2023/09/27 08:05:42;;;;;;;12.23;7.28;;;;;;;;;;5091383;28;20040;-62
2023/09/27 08:08:09;;;;;;;10.60;7.72;;;;;;;;;;5090112;28;20044;-64
2023/09/27 08:10:34;;;;;;;10.68;6.60;;;;;;;;;;5090085;28;20043;-63
2023/09/27 08:13:00;;;;;;;12.20;6.22;;;;;;;;;;5091474;28;20044;-62
2023/09/27 08:15:26;;;;;;;12.32;7.75;;;;;;;;;;5091573;28;20485;-64
2023/09/27 08:17:52;;;;;;;8.90;5.97;;;;;;;;;;5081087;28;20036;-65
2023/09/27 08:20:18;;;;;;;12.10;6.72;;;;;;;;;;5071390;28;20066;-63
2023/09/27 08:22:44;;;;;;;10.70;6.63;;;;;;;;;;5069565;28;20446;-62
2023/09/27 08:25:16;;;;;;;11.15;6.07;;;;;;;;;;5071265;28;20087;-63
2023/09/27 08:27:42;;;;;;;6.63;5.50;;;;;;;;;;5073737;28;20093;-65
2023/09/27 08:30:09;;;;;;;10.27;6.53;;;;;;;;;;5080351;28;20041;-63
2023/09/27 08:32:34;;;;;;;9.02;5.88;;;;;;;;;;5074725;28;20036;-63
2023/09/27 08:35:02;;;;;;;9.70;5.63;;;;;;;;;;5072863;28;20390;-63
2023/09/27 08:37:29;;;;;;;9.50;5.75;;;;;;;;;;5087733;28;20461;-63
2023/09/27 08:39:56;;;;;;;9.30;5.85;;;;;;;;;;5036889;28;20059;-61
2023/09/27 08:42:23;;;;;;;7.20;5.28;;;;;;;;;;5058939;28;20039;-61
2023/09/27 08:44:49;;;;;;;9.75;6.10;;;;;;;;;;5056582;28;20036;-60
2023/09/27 08:47:16;;;;;;;7.15;5.35;;;;;;;;;;5048571;28;20063;-62
2023/09/27 08:49:42;;;;;;;7.80;5.60;;;;;;;;;;5045509;28;20039;-64
2023/09/27 08:52:08;;;;;;;10.82;5.95;;;;;;;;;;5082529;28;20461;-63
2023/09/27 08:54:35;;;;;;;13.93;5.30;;;;;;;;;;5055324;28;20078;-64
2023/09/27 08:57:00;;;;;;;10.15;5.85;;;;;;;;;;5070718;28;20036;-62
2023/09/27 08:59:26;;;;;;;7.43;5.13;;;;;;;;;;5071108;28;20087;-62
2023/09/27 09:01:52;;;;;;;8.05;4.93;;;;;;;;;;5070240;28;20029;-65
2023/09/27 09:04:18;;;;;;;11.32;5.60;;;;;;;;;;5068617;28;20539;-64
2023/09/27 09:06:44;;;;;;;9.77;5.97;;;;;;;;;;5068244;28;20044;-63
2023/09/27 09:09:11;;;;;;;6.60;5.15;;;;;;;;;;5070418;28;20075;-64
2023/09/27 09:11:47;;;;;;;8.20;4.68;;;;;;;;;;5070813;28;20059;-67
2023/09/27 09:14:17;;;;;;;7.10;4.30;;;;;;;;;;5069600;28;20116;-64
2023/09/27 09:16:52;;;;;;;6.32;4.78;;;;;;;;;;5065970;28;20490;-64
2023/09/27 09:19:24;;;;;;;7.35;4.30;;;;;;;;;;5074393;28;20040;-64
2023/09/27 09:21:57;;;;;;;7.63;4.50;;;;;;;;;;5061009;28;20028;-64
2023/09/27 09:24:23;;;;;;;6.57;4.05;;;;;;;;;;5056152;28;20423;-64
2023/09/27 09:27:02;;;;;;;5.38;4.47;;;;;;;;;;5074467;28;20047;-65
2023/09/27 09:29:44;;;;;;;8.55;4.20;;;;;;;;;;5075034;28;20040;-66
2023/09/27 09:32:10;;;;;;;7.28;4.15;;;;;;;;;;5073625;28;20064;-65
2023/09/27 09:34:43;;;;;;;10.70;4.85;;;;;;;;;;5056584;28;20068;-64
2023/09/27 09:37:19;;;;;;;6.90;4.70;;;;;;;;;;5056821;28;20134;-65
2023/09/27 09:39:46;;;;;;;7.70;4.47;;;;;;;;;;5088415;28;20082;-64
2023/09/27 09:42:13;;;;;;;6.35;4.15;;;;;;;;;;5076770;28;20038;-64
2023/09/27 09:44:39;;;;;;;7.50;4.43;;;;;;;;;;5091962;28;20431;-65
2023/09/27 09:47:08;;;;;;;7.80;4.15;;;;;;;;;;5091264;28;20503;-63
2023/09/27 09:49:35;;;;;;;6.53;3.67;;;;;;;;;;5091893;28;20048;-65
2023/09/27 09:52:02;;;;;;;7.43;5.20;;;;;;;;;;5094110;28;20126;-64
2023/09/27 09:54:31;;;;;;;6.40;3.15;;;;;;;;;;5094305;28;20390;-64
2023/09/27 09:56:59;;;;;;;6.35;3.88;;;;;;;;;;5088941;28;20341;-63
2023/09/27 09:59:28;;;;;;;7.50;3.47;;;;;;;;;;5093256;28;20417;-66
2023/09/27 10:01:57;;;;;;;5.43;3.37;;;;;;;;;;5091968;28;20629;-64
2023/09/27 10:04:23;;;;;;;11.40;4.50;;;;;;;;;;5072684;28;20410;-65
2023/09/27 10:06:50;;;;;;;6.53;3.40;;;;;;;;;;5073352;28;20040;-65
2023/09/27 10:09:16;;;;;;;5.78;3.58;;;;;;;;;;5072425;28;20589;-63
2023/09/27 10:11:44;;;;;;;4.88;3.63;;;;;;;;;;5073311;28;20060;-64
2023/09/27 10:14:11;;;;;;;6.70;3.85;;;;;;;;;;5054941;28;20031;-63
2023/09/27 10:16:37;;;;;;;4.82;3.42;;;;;;;;;;5078396;28;20318;-63
2023/09/27 10:19:05;;;;;;;5.32;3.67;;;;;;;;;;5093678;28;20454;-62
2023/09/27 10:21:31;;;;;;;5.05;3.10;;;;;;;;;;5093608;28;20036;-63
2023/09/27 10:23:58;;;;;;;5.05;3.42;;;;;;;;;;5093828;28;20374;-63
2023/09/27 10:26:23;;;;;;;5.50;3.42;;;;;;;;;;5073810;28;20422;-63
2023/09/27 10:29:06;;;;;;;6.90;3.80;;;;;;;;;;5071974;28;20048;-64
2023/09/27 10:31:40;;;;;;;5.57;4.00;;;;;;;;;;5072780;28;20102;-65
2023/09/27 10:34:34;;;;;;;6.22;3.67;;;;;;;;;;5073129;28;20071;-63
2023/09/27 10:37:00;;;;;;;6.32;3.85;;;;;;;;;;5075248;28;20044;-63
2023/09/27 10:39:26;;;;;;;9.90;4.05;;;;;;;;;;5081518;28;20091;-62
2023/09/27 10:41:53;;;;;;;9.02;4.13;;;;;;;;;;5086252;28;20122;-63
2023/09/27 10:44:32;;;;;;;8.30;3.92;;;;;;;;;;5092774;28;20089;-63
2023/09/27 10:46:58;;;;;;;7.05;4.30;;;;;;;;;;5093497;28;20040;-64
2023/09/27 10:49:27;;;;;;;9.90;4.07;;;;;;;;;;5092829;28;20032;-63
2023/09/27 10:51:53;;;;;;;6.95;3.65;;;;;;;;;;5087346;28;20028;-63
2023/09/27 10:54:28;;;;;;;6.47;3.70;;;;;;;;;;5082206;28;20522;-64
2023/09/27 10:56:59;;;;;;;5.70;3.85;;;;;;;;;;5082214;28;20542;-62
2023/09/27 10:59:28;;;;;;;7.18;4.13;;;;;;;;;;5081563;28;20064;-62
2023/09/27 11:01:59;;;;;;;7.20;4.13;;;;;;;;;;5082346;28;20032;-65
2023/09/27 11:04:27;;;;;;;7.28;4.45;;;;;;;;;;5081406;28;20032;-64
2023/09/27 11:06:53;;;;;;;6.25;4.18;;;;;;;;;;5081426;28;20508;-62
2023/09/27 11:09:23;;;;;;;4.93;3.88;;;;;;;;;;5082053;28;20044;-65
2023/09/27 11:11:50;;;;;;;6.53;4.50;;;;;;;;;;5083296;28;20042;-65
2023/09/27 11:14:32;;;;;;;7.03;3.80;;;;;;;;;;5081245;28;20128;-65
2023/09/27 11:17:22;;;;;;;7.25;4.32;;;;;;;;;;5100119;28;20119;-64
2023/09/27 11:20:06;;;;;;;9.18;4.55;;;;;;;;;;5081685;28;20037;-61
2023/09/27 11:22:32;;;;;;;10.18;4.20;;;;;;;;;;5080903;28;20484;-65
2023/09/27 11:24:58;;;;;;;4.68;3.80;;;;;;;;;;5082125;28;20039;-66
2023/09/27 11:27:25;;;;;;;5.93;3.75;;;;;;;;;;5081442;28;20043;-62
2023/09/27 11:29:52;;;;;;;8.35;3.70;;;;;;;;;;5085246;28;20135;-62
2023/09/27 11:32:22;;;;;;;7.28;3.42;;;;;;;;;;5072047;28;20086;-63
2023/09/27 11:34:56;;;;;;;5.25;3.65;;;;;;;;;;5071879;28;20051;-61
2023/09/27 11:37:23;;;;;;;5.57;3.92;;;;;;;;;;5072332;28;20044;-62
2023/09/27 11:39:54;;;;;;;6.22;3.83;;;;;;;;;;5070295;28;20048;-64
2023/09/27 11:42:24;;;;;;;7.70;5.28;;;;;;;;;;5071352;28;20037;-61
2023/09/27 11:45:05;;;;;;;8.27;4.90;;;;;;;;;;5071192;28;20535;-63
2023/09/27 11:47:44;;;;;;;5.97;3.95;;;;;;;;;;5071736;28;20158;-62
2023/09/27 11:50:10;;;;;;;6.85;3.47;;;;;;;;;;5071198;28;20032;-62
2023/09/27 11:52:35;;;;;;;5.03;3.50;;;;;;;;;;5070279;28;20054;-61
2023/09/27 11:55:01;;;;;;;5.70;3.38;;;;;;;;;;5071475;28;20465;-64
2023/09/27 11:57:27;;;;;;;4.25;2.95;;;;;;;;;;5071893;28;20032;-63
2023/09/27 11:59:53;;;;;;;5.78;3.33;;;;;;;;;;5071200;28;20464;-63
2023/09/27 12:02:21;;;;;;;4.95;3.78;;;;;;;;;;5074213;28;20042;-60
2023/09/27 12:04:50;;;;;;;6.13;3.70;;;;;;;;;;5082000;28;20405;-61
2023/09/27 12:07:32;;;;;;;4.82;3.28;;;;;;;;;;5079484;28;20044;-62
2023/09/27 12:09:58;;;;;;;4.57;3.40;;;;;;;;;;5081244;28;20032;-62
2023/09/27 12:12:23;;;;;;;5.10;3.20;;;;;;;;;;5081886;28;20119;-61
2023/09/27 12:14:58;;;;;;;7.72;3.40;;;;;;;;;;5079813;28;20035;-62
2023/09/27 12:17:26;;;;;;;4.70;2.75;;;;;;;;;;5081042;28;20085;-61
2023/09/27 12:19:53;;;;;;;4.93;3.30;;;;;;;;;;5081431;28;20037;-64
2023/09/27 12:22:19;;;;;;;4.75;3.28;;;;;;;;;;5080110;28;20045;-62
2023/09/27 12:25:06;;;;;;;6.75;3.53;;;;;;;;;;5082260;28;20150;-63
2023/09/27 12:27:41;;;;;;;5.40;2.88;;;;;;;;;;5079346;28;20044;-63
2023/09/27 12:30:14;;;;;;;7.53;4.10;;;;;;;;;;5081086;28;20028;-61
2023/09/27 12:32:43;;;;;;;3.45;2.67;;;;;;;;;;5078830;28;20089;-61
2023/09/27 12:35:09;;;;;;;4.68;3.25;;;;;;;;;;5078985;28;20036;-64
2023/09/27 12:37:35;;;;;;;5.00;3.10;;;;;;;;;;5082401;28;20469;-62
2023/09/27 12:40:01;;;;;;;5.00;3.22;;;;;;;;;;5079201;28;20056;-61
2023/09/27 12:42:27;;;;;;;5.80;3.33;;;;;;;;;;5082537;28;20039;-63
2023/09/27 12:44:53;;;;;;;3.53;3.05;;;;;;;;;;5079881;28;20115;-62
2023/09/27 12:47:18;;;;;;;6.13;3.65;;;;;;;;;;5081630;28;20083;-63
2023/09/27 12:49:44;;;;;;;9.30;3.50;;;;;;;;;;5078251;28;20033;-64
2023/09/27 12:52:10;;;;;;;7.20;4.03;;;;;;;;;;5080597;28;20488;-65
2023/09/27 12:54:35;;;;;;;5.13;3.63;;;;;;;;;;5081179;28;20074;-65
2023/09/27 12:57:01;;;;;;;4.57;3.20;;;;;;;;;;5083340;28;20063;-64
2023/09/27 12:59:27;;;;;;;5.13;3.88;;;;;;;;;;5077067;28;20528;-64
2023/09/27 13:01:52;;;;;;;4.32;3.63;;;;;;;;;;5074870;28;20036;-62
2023/09/27 13:04:18;;;;;;;9.05;6.13;;;;;;;;;;5074556;28;20172;-63
2023/09/27 13:06:44;;;;;;;8.15;3.00;;;;;;;;;;5073106;28;20048;-63
2023/09/27 13:09:10;;;;;;;5.30;3.40;;;;;;;;;;5074839;28;20048;-63
2023/09/27 13:11:36;;;;;;;4.88;3.13;;;;;;;;;;5074490;28;20081;-63
2023/09/27 13:14:01;;;;;;;6.60;3.70;;;;;;;;;;5074398;28;20044;-63
2023/09/27 13:16:27;;;;;;;5.45;3.03;;;;;;;;;;5084781;28;20430;-63
2023/09/27 13:18:53;;;;;;;6.78;3.25;;;;;;;;;;5114241;28;20484;-64
2023/09/27 13:21:19;;;;;;;3.90;3.13;;;;;;;;;;5087009;28;20059;-64
2023/09/27 13:23:44;;;;;;;6.13;3.35;;;;;;;;;;5073061;28;20099;-63
2023/09/27 13:26:11;;;;;;;4.72;3.45;;;;;;;;;;5074299;28;20482;-61
2023/09/27 13:28:36;;;;;;;5.90;2.97;;;;;;;;;;5072629;28;20414;-64
2023/09/27 13:31:02;;;;;;;6.53;3.33;;;;;;;;;;5073982;28;20032;-61
2023/09/27 13:33:29;;;;;;;5.90;3.85;;;;;;;;;;5074434;28;20040;-63
2023/09/27 13:35:57;;;;;;;8.07;3.70;;;;;;;;;;5074344;28;20032;-65
2023/09/27 13:38:23;;;;;;;6.05;3.70;;;;;;;;;;5086148;28;20533;-62
2023/09/27 13:40:50;;;;;;;6.63;3.70;;;;;;;;;;5091545;28;20051;-62
2023/09/27 13:43:16;;;;;;;5.78;3.90;;;;;;;;;;5085469;28;20028;-63
2023/09/27 13:45:41;;;;;;;7.05;3.70;;;;;;;;;;5083257;28;20040;-65
2023/09/27 13:48:07;;;;;;;6.38;3.88;;;;;;;;;;5081909;28;20040;-65
2023/09/27 13:50:35;;;;;;;8.65;5.97;;;;;;;;;;5084591;28;20044;-64
2023/09/27 13:53:02;;;;;;;10.18;5.15;;;;;;;;;;5083562;28;20444;-61
2023/09/27 13:55:28;;;;;;;9.70;4.90;;;;;;;;;;5081831;28;20520;-63
2023/09/27 13:57:53;;;;;;;7.03;4.50;;;;;;;;;;5072364;28;20029;-62
2023/09/27 14:00:19;;;;;;;6.38;4.18;;;;;;;;;;5071365;28;20028;-62
2023/09/27 14:02:45;;;;;;;4.80;3.80;;;;;;;;;;5072306;28;20040;-62
2023/09/27 14:05:11;;;;;;;5.97;3.50;;;;;;;;;;5073631;28;20028;-63
2023/09/27 14:07:38;;;;;;;6.95;3.97;;;;;;;;;;5071437;28;20509;-64
2023/09/27 14:10:05;;;;;;;6.82;3.78;;;;;;;;;;5071976;28;20033;-65
2023/09/27 14:12:31;;;;;;;12.95;3.80;;;;;;;;;;5072916;28;20085;-63
2023/09/27 14:14:58;;;;;;;7.80;3.70;;;;;;;;;;5073337;28;20037;-64
2023/09/27 14:17:23;;;;;;;7.18;3.30;;;;;;;;;;5098263;28;20119;-63
2023/09/27 14:19:50;;;;;;;8.25;3.97;;;;;;;;;;5111001;28;20031;-63
2023/09/27 14:22:15;;;;;;;10.15;4.07;;;;;;;;;;5073140;28;20040;-62
2023/09/27 14:24:41;;;;;;;11.65;4.68;;;;;;;;;;5073300;28;20036;-62
2023/09/27 14:27:07;;;;;;;6.55;3.50;;;;;;;;;;5073321;28;20047;-62
2023/09/27 14:29:36;;;;;;;7.50;3.70;;;;;;;;;;5082434;28;20075;-63